Terminal Aerodrome Forecast
Issued by NWS

Home | Current Version | Previous Version | Text Only | Print | Product List | Glossary On
Versions: 1 2 3 4 5 6 7 8 9 10 11 12 13 14
230
FTUS44 KEPZ 191141
TAFLRU
TAF
KLRU 191141Z 1912/2012 17008KT P6SM FEW060 SCT100 BKN250
     FM191800 13010KT P6SM VCTS SCT060CB BKN100 BKN200
      TEMPO 1922/2002 VRB25G35KT 5SM -TSRA BKN050CB BKN100
     FM200300 14012G20KT 6SM -TSRA BKN040CB OVC100
     FM200600 25010KT 6SM -TSRA BKN040CB OVC100
      TEMPO 2008/2012 4SM RA BR BKN030 OVC100=

USA.gov is the U.S. government's official web portal to all federal, state and local government web resources and services.